createdAt,value
2022-08-24T00:01:04.258Z,12.75
2022-08-24T00:03:57.253Z,9.32
2022-08-24T00:06:46.616Z,11.55
2022-08-24T00:09:35.713Z,13.38
2022-08-24T00:12:24.756Z,11.00
2022-08-24T00:15:08.034Z,10.50
2022-08-24T00:17:56.746Z,9.77
2022-08-24T00:20:45.707Z,11.18
2022-08-24T00:23:27.980Z,12.15
2022-08-24T00:26:28.500Z,14.07
2022-08-24T00:29:11.322Z,11.32
2022-08-24T00:32:01.805Z,12.25
2022-08-24T00:34:58.627Z,11.05
2022-08-24T00:37:49.716Z,9.88
2022-08-24T00:40:36.744Z,11.13
2022-08-24T00:43:26.661Z,10.57
2022-08-24T00:46:24.732Z,9.32
2022-08-24T00:49:27.206Z,8.57
2022-08-24T00:52:35.626Z,8.15
2022-08-24T00:55:36.738Z,13.13
2022-08-24T00:58:44.618Z,9.15
2022-08-24T01:01:33.716Z,10.82
2022-08-24T01:04:21.480Z,14.27
2022-08-24T01:07:11.761Z,11.20
2022-08-24T01:09:57.417Z,10.27
2022-08-24T01:12:59.991Z,13.52
2022-08-24T01:15:49.006Z,14.13
2022-08-24T01:18:59.619Z,16.27
2022-08-24T01:22:00.077Z,7.95
2022-08-24T01:24:44.637Z,10.25
2022-08-24T01:27:37.056Z,8.55
2022-08-24T01:30:21.717Z,11.25
2022-08-24T01:33:29.773Z,11.43
2022-08-24T01:36:33.035Z,12.73
2022-08-24T01:39:55.038Z,10.27
2022-08-24T01:42:37.989Z,8.75
2022-08-24T01:45:27.645Z,11.30
2022-08-24T01:48:13.039Z,10.13
2022-08-24T01:51:01.705Z,15.20
2022-08-24T01:53:51.632Z,8.82
2022-08-24T01:56:42.709Z,11.98
2022-08-24T01:59:24.967Z,10.20
2022-08-24T02:02:27.738Z,11.80
2022-08-24T02:05:10.788Z,12.00
2022-08-24T02:08:01.802Z,9.63
2022-08-24T02:10:45.924Z,15.05
2022-08-24T02:13:56.726Z,9.70
2022-08-24T02:16:46.626Z,16.42
2022-08-24T02:19:41.734Z,14.55
2022-08-24T02:22:30.119Z,11.25
2022-08-24T02:25:14.125Z,13.07
2022-08-24T02:30:44.721Z,11.07
2022-08-24T02:33:33.646Z,16.85
2022-08-24T02:36:26.706Z,13.18
2022-08-24T02:39:17.009Z,24.73
2022-08-24T02:41:59.700Z,11.88
2022-08-24T02:44:47.894Z,18.42
2022-08-24T02:47:37.981Z,10.80
2022-08-24T02:50:27.627Z,10.32
2022-08-24T02:53:16.749Z,11.43
2022-08-24T02:56:05.641Z,18.67
2022-08-24T02:58:54.820Z,10.13
2022-08-24T03:01:43.210Z,13.25
2022-08-24T03:04:26.768Z,12.50
2022-08-24T03:07:09.802Z,7.80
2022-08-24T03:09:58.726Z,9.05
2022-08-24T03:12:55.726Z,11.10
2022-08-24T03:15:47.685Z,14.95
2022-08-24T03:18:31.593Z,10.85
2022-08-24T03:21:22.615Z,12.80
2022-08-24T03:24:14.632Z,11.52
2022-08-24T03:27:05.337Z,12.87
2022-08-24T03:29:48.784Z,9.82
2022-08-24T03:32:39.183Z,9.25
2022-08-24T03:35:22.711Z,14.32
2022-08-24T03:38:11.690Z,14.88
2022-08-24T03:41:00.686Z,15.30
2022-08-24T03:43:56.645Z,10.02
2022-08-24T03:46:50.745Z,11.95
2022-08-24T03:49:42.626Z,9.05
2022-08-24T03:52:34.035Z,13.05
2022-08-24T03:55:23.617Z,11.48
2022-08-24T03:58:12.711Z,13.43
2022-08-24T04:01:02.716Z,8.52
2022-08-24T04:03:51.161Z,10.68
2022-08-24T04:06:46.767Z,12.60
2022-08-24T04:09:30.061Z,8.70
2022-08-24T04:12:18.704Z,12.30
2022-08-24T04:15:18.681Z,8.95
2022-08-24T04:18:13.712Z,10.90
2022-08-24T04:21:02.741Z,13.40
2022-08-24T04:23:47.603Z,13.38
2022-08-24T04:26:45.696Z,6.88
2022-08-24T04:29:35.611Z,9.57
2022-08-24T04:32:18.074Z,10.77
2022-08-24T04:35:09.597Z,10.50
2022-08-24T04:37:51.671Z,14.15
2022-08-24T04:40:40.625Z,11.75
2022-08-24T04:43:24.684Z,19.58
2022-08-24T04:46:18.634Z,9.95
2022-08-24T04:49:01.957Z,7.72
2022-08-24T04:51:51.612Z,11.20
2022-08-24T04:54:41.727Z,8.57
2022-08-24T04:57:30.007Z,9.32
2022-08-24T05:00:19.685Z,12.45
2022-08-24T05:03:02.064Z,12.23
2022-08-24T05:05:54.641Z,8.35
2022-08-24T05:11:27.707Z,7.60
2022-08-24T05:14:11.223Z,9.27
2022-08-24T05:17:06.775Z,11.32
2022-08-24T05:19:59.520Z,9.65
2022-08-24T05:22:43.765Z,10.45
2022-08-24T05:25:47.573Z,9.52
2022-08-24T05:28:36.747Z,8.32
2022-08-24T05:31:25.958Z,7.93
2022-08-24T05:34:20.627Z,6.88
2022-08-24T05:37:12.627Z,7.90
2022-08-24T05:40:23.714Z,10.55
2022-08-24T05:43:06.995Z,15.70
2022-08-24T05:46:01.602Z,7.32
2022-08-24T05:48:53.038Z,9.23
2022-08-24T05:51:40.631Z,6.50
2022-08-24T05:54:29.999Z,10.77
2022-08-24T05:57:13.726Z,9.57
2022-08-24T06:00:20.636Z,10.57
2022-08-24T06:03:11.969Z,10.93
2022-08-24T06:06:06.604Z,6.47
2022-08-24T06:08:51.909Z,8.73
2022-08-24T06:11:44.673Z,6.65
2022-08-24T06:14:27.221Z,6.47
2022-08-24T06:17:16.853Z,6.63
2022-08-24T06:20:12.583Z,8.90
2022-08-24T06:23:02.842Z,8.73
2022-08-24T06:26:10.058Z,10.00
2022-08-24T06:29:02.713Z,8.52
2022-08-24T06:31:54.615Z,8.45
2022-08-24T06:34:46.618Z,8.35
2022-08-24T06:37:36.690Z,6.30
2022-08-24T06:40:29.694Z,17.10
2022-08-24T06:43:18.704Z,14.20
2022-08-24T06:46:02.164Z,9.90
2022-08-24T06:48:55.612Z,5.63
2022-08-24T06:51:48.667Z,8.48
2022-08-24T06:54:32.700Z,4.13
2022-08-24T06:57:22.727Z,13.00
2022-08-24T07:00:06.026Z,9.93
2022-08-24T07:02:54.650Z,6.90
2022-08-24T07:05:44.632Z,7.82
2022-08-24T07:08:47.549Z,6.60
2022-08-24T07:11:36.647Z,5.70
2022-08-24T07:14:27.062Z,5.63
2022-08-24T07:17:10.771Z,7.30
2022-08-24T07:20:05.540Z,7.50
2022-08-24T07:23:42.020Z,4.53
2022-08-24T07:26:33.724Z,3.25
2022-08-24T07:32:30.929Z,5.88
2022-08-24T07:35:20.769Z,7.88
2022-08-24T07:38:11.015Z,5.75
2022-08-24T07:41:20.309Z,5.97
2022-08-24T07:43:57.835Z,9.43
2022-08-24T07:46:46.804Z,9.25
2022-08-24T07:49:36.817Z,6.55
2022-08-24T07:52:26.621Z,9.23
2022-08-24T07:55:17.097Z,4.85
2022-08-24T07:57:59.615Z,11.80
2022-08-24T08:03:31.592Z,7.13
2022-08-24T08:06:21.015Z,13.38
2022-08-24T08:09:08.608Z,7.85
2022-08-24T08:11:58.728Z,7.10
2022-08-24T08:14:42.166Z,5.85
2022-08-24T08:17:31.740Z,6.25
2022-08-24T08:20:23.706Z,4.95
2022-08-24T08:23:46.602Z,6.43
2022-08-24T08:27:00.706Z,6.63
2022-08-24T08:29:53.665Z,10.52
2022-08-24T08:32:42.621Z,8.25
2022-08-24T08:35:31.985Z,7.20
2022-08-24T08:38:16.631Z,6.05
2022-08-24T08:41:45.995Z,7.18
2022-08-24T08:44:51.631Z,8.20
2022-08-24T08:48:11.768Z,10.27
2022-08-24T08:51:22.023Z,5.85
2022-08-24T08:54:25.722Z,8.23
2022-08-24T08:57:17.313Z,9.27
2022-08-24T09:00:16.090Z,7.88
2022-08-24T09:03:25.715Z,4.47
2022-08-24T09:06:49.691Z,7.07
2022-08-24T09:09:56.284Z,7.68
2022-08-24T09:13:27.727Z,9.00
2022-08-24T09:16:52.677Z,6.25
2022-08-24T09:19:44.739Z,5.55
2022-08-24T09:22:33.642Z,5.10
2022-08-24T09:25:36.617Z,6.97
2022-08-24T09:31:40.693Z,6.78
2022-08-24T09:34:57.701Z,6.20
2022-08-24T09:38:01.865Z,5.55
2022-08-24T09:41:02.719Z,5.35
2022-08-24T09:43:45.007Z,4.47
2022-08-24T09:46:57.739Z,10.10
2022-08-24T09:49:58.013Z,9.10
2022-08-24T09:53:23.721Z,8.48
2022-08-24T09:56:36.650Z,6.00
2022-08-24T09:59:47.631Z,7.53
2022-08-24T10:02:33.126Z,7.68
2022-08-24T10:05:48.833Z,4.95
2022-08-24T10:09:13.636Z,5.80
2022-08-24T10:12:38.640Z,6.22
2022-08-24T10:15:36.020Z,8.50
2022-08-24T10:18:58.591Z,10.60
2022-08-24T10:22:03.020Z,10.55
2022-08-24T10:25:10.608Z,9.38
2022-08-24T10:28:02.027Z,16.00
2022-08-24T10:31:02.614Z,7.50
2022-08-24T10:34:10.710Z,7.35
2022-08-24T10:37:10.807Z,9.15
2022-08-24T10:40:26.687Z,10.45
2022-08-24T10:43:39.039Z,7.65
2022-08-24T10:46:23.716Z,8.57
2022-08-24T10:49:30.373Z,8.23
2022-08-24T10:52:44.670Z,9.75
2022-08-24T10:55:37.625Z,10.60
2022-08-24T10:59:11.678Z,7.43
2022-08-24T11:02:15.929Z,9.40
2022-08-24T11:05:08.608Z,7.47
2022-08-24T11:12:04.154Z,6.10
2022-08-24T11:15:00.234Z,10.30
2022-08-24T11:18:13.925Z,9.50
2022-08-24T11:21:13.644Z,9.55
2022-08-24T11:24:02.490Z,7.65
2022-08-24T11:27:13.770Z,7.40
2022-08-24T11:29:58.732Z,9.00
2022-08-24T11:33:00.749Z,6.60
2022-08-24T11:35:42.869Z,7.65
2022-08-24T11:38:39.679Z,9.00
2022-08-24T11:41:34.602Z,11.85
2022-08-24T11:44:57.612Z,9.00
2022-08-24T11:48:01.841Z,8.77
2022-08-24T11:51:05.502Z,6.50
2022-08-24T11:54:12.622Z,7.78
2022-08-24T11:57:11.882Z,8.98
2022-08-24T12:00:13.662Z,5.20
2022-08-24T12:03:12.041Z,12.18
2022-08-24T12:06:16.684Z,13.93
2022-08-24T12:09:30.716Z,5.90
2022-08-24T12:12:30.865Z,6.60
2022-08-24T12:16:06.778Z,5.53
2022-08-24T12:19:19.571Z,9.13
2022-08-24T12:22:12.629Z,5.78
2022-08-24T12:25:32.585Z,7.25
2022-08-24T12:28:31.613Z,10.43
2022-08-24T12:31:54.095Z,5.50
2022-08-24T12:35:08.679Z,9.68
2022-08-24T12:38:09.209Z,9.05
2022-08-24T12:41:12.137Z,6.60
2022-08-24T12:44:10.950Z,9.30
2022-08-24T12:47:07.682Z,11.80
2022-08-24T12:50:05.707Z,7.20
2022-08-24T12:53:13.462Z,9.18
2022-08-24T12:56:33.585Z,11.75
2022-08-24T12:59:33.044Z,8.82
2022-08-24T13:02:27.673Z,6.13
2022-08-24T13:05:29.971Z,9.10
2022-08-24T13:08:51.636Z,9.75
2022-08-24T13:11:47.619Z,11.30
2022-08-24T13:14:38.006Z,9.57
2022-08-24T13:17:20.816Z,8.50
2022-08-24T13:20:32.719Z,6.35
2022-08-24T13:23:24.993Z,7.32
2022-08-24T13:26:41.613Z,8.52
2022-08-24T13:29:44.670Z,8.90
2022-08-24T13:33:01.802Z,8.68
2022-08-24T13:35:43.776Z,19.10
2022-08-24T13:38:52.350Z,12.15
2022-08-24T13:41:55.636Z,11.05
2022-08-24T13:45:00.896Z,13.95
2022-08-24T13:48:10.706Z,11.60
2022-08-24T13:51:01.883Z,11.77
2022-08-24T13:54:04.588Z,11.55
2022-08-24T13:56:54.999Z,11.10
2022-08-24T14:00:09.621Z,11.45
2022-08-24T14:03:27.767Z,15.50
2022-08-24T14:06:35.817Z,9.02
2022-08-24T14:09:29.040Z,6.38
2022-08-24T14:12:40.636Z,6.60
2022-08-24T14:15:35.072Z,10.80
2022-08-24T14:18:23.649Z,10.77
2022-08-24T14:21:48.754Z,5.93
2022-08-24T14:24:46.118Z,4.93
2022-08-24T14:28:02.833Z,5.93
2022-08-24T14:30:59.628Z,8.50
2022-08-24T14:34:22.737Z,8.80
2022-08-24T14:37:29.616Z,8.68
2022-08-24T14:40:54.630Z,5.43
2022-08-24T14:43:54.973Z,7.78
2022-08-24T14:46:52.748Z,7.38
2022-08-24T14:50:11.983Z,5.60
2022-08-24T14:53:04.689Z,5.30
2022-08-24T14:55:46.936Z,8.27
2022-08-24T14:59:08.691Z,4.97
2022-08-24T15:01:54.021Z,5.10
2022-08-24T15:04:53.700Z,4.88
2022-08-24T15:07:44.421Z,8.52
2022-08-24T15:10:41.585Z,5.25
2022-08-24T15:13:56.796Z,5.18
2022-08-24T15:17:00.844Z,5.07
2022-08-24T15:19:52.564Z,5.00
2022-08-24T15:22:47.843Z,5.47
2022-08-24T15:25:50.595Z,6.30
2022-08-24T15:28:35.953Z,5.65
2022-08-24T15:31:36.611Z,6.18
2022-08-24T15:34:19.437Z,6.63
2022-08-24T15:40:14.491Z,8.43
2022-08-24T15:43:11.679Z,7.60
2022-08-24T15:45:59.092Z,6.65
2022-08-24T15:48:49.908Z,7.75
2022-08-24T15:51:49.797Z,12.23
2022-08-24T15:54:48.580Z,6.32
2022-08-24T15:57:34.122Z,8.52
2022-08-24T16:00:49.734Z,11.20
2022-08-24T16:03:56.582Z,6.40
2022-08-24T16:06:48.734Z,7.45
2022-08-24T16:09:30.867Z,6.78
2022-08-24T16:12:45.695Z,7.20
2022-08-24T16:15:28.974Z,7.60
2022-08-24T16:18:17.565Z,8.27
2022-08-24T16:21:00.097Z,7.72
2022-08-24T16:23:51.586Z,8.43
2022-08-24T16:26:57.998Z,8.85
2022-08-24T16:29:46.598Z,11.13
2022-08-24T16:32:50.226Z,8.23
2022-08-24T16:35:42.885Z,7.53
2022-08-24T16:38:32.700Z,8.18
2022-08-24T16:41:24.687Z,8.32
2022-08-24T16:44:15.032Z,7.85
2022-08-24T16:46:56.642Z,11.32
2022-08-24T16:49:47.672Z,8.30
2022-08-24T16:52:37.701Z,7.55
2022-08-24T16:55:20.063Z,8.98
2022-08-24T16:58:09.643Z,11.77
2022-08-24T17:00:58.707Z,9.57
2022-08-24T17:03:41.079Z,9.00
2022-08-24T17:06:30.691Z,9.10
2022-08-24T17:09:19.895Z,7.85
2022-08-24T17:12:10.192Z,9.30
2022-08-24T17:14:53.731Z,9.13
2022-08-24T17:17:47.892Z,12.75
2022-08-24T17:20:30.583Z,10.77
2022-08-24T17:23:26.668Z,10.90
2022-08-24T17:26:21.822Z,8.82
2022-08-24T17:29:11.659Z,9.32
2022-08-24T17:32:03.727Z,9.98
2022-08-24T17:34:52.705Z,8.90
2022-08-24T17:37:41.024Z,11.93
2022-08-24T17:40:32.789Z,8.52
2022-08-24T17:43:15.718Z,15.18
2022-08-24T17:46:05.738Z,9.32
2022-08-24T17:48:49.131Z,10.55
2022-08-24T17:51:37.764Z,12.38
2022-08-24T17:54:22.933Z,10.48
2022-08-24T17:57:11.593Z,8.70
2022-08-24T17:59:54.078Z,11.65
2022-08-24T18:02:42.733Z,12.43
2022-08-24T18:05:24.957Z,9.10
2022-08-24T18:08:14.677Z,9.60
2022-08-24T18:10:57.054Z,10.10
2022-08-24T18:13:45.671Z,12.43
2022-08-24T18:16:31.227Z,10.52
2022-08-24T18:19:22.958Z,12.30
2022-08-24T18:22:06.972Z,10.20
2022-08-24T18:24:55.761Z,12.60
2022-08-24T18:27:40.955Z,11.27
2022-08-24T18:30:34.716Z,11.90
2022-08-24T18:33:17.172Z,12.13
2022-08-24T18:36:05.976Z,11.52
2022-08-24T18:39:02.746Z,12.13
2022-08-24T18:42:03.676Z,10.88
2022-08-24T18:44:47.181Z,13.60
2022-08-24T18:47:35.669Z,17.58
2022-08-24T18:50:18.556Z,13.88
2022-08-24T18:53:07.684Z,15.65
2022-08-24T18:55:56.701Z,17.33
2022-08-24T18:58:45.767Z,15.68
2022-08-24T19:01:29.769Z,12.73
2022-08-24T19:04:19.671Z,13.73
2022-08-24T19:07:10.828Z,16.95
2022-08-24T19:09:52.666Z,13.77
2022-08-24T19:12:46.789Z,17.85
2022-08-24T19:15:39.780Z,18.65
2022-08-24T19:18:24.663Z,15.68
2022-08-24T19:21:07.680Z,14.48
2022-08-24T19:23:51.053Z,15.73
2022-08-24T19:26:39.648Z,16.05
2022-08-24T19:29:54.102Z,16.48
2022-08-24T19:32:39.681Z,16.17
2022-08-24T19:35:24.012Z,17.33
2022-08-24T19:38:12.672Z,17.85
2022-08-24T19:41:12.558Z,17.15
2022-08-24T19:44:27.212Z,21.23
2022-08-24T19:47:09.981Z,17.65
2022-08-24T19:49:58.669Z,15.98
2022-08-24T19:52:43.390Z,15.60
2022-08-24T19:55:32.667Z,19.40
2022-08-24T19:58:51.643Z,15.73
2022-08-24T20:01:43.709Z,15.25
2022-08-24T20:04:25.990Z,15.38
2022-08-24T20:07:16.694Z,16.38
2022-08-24T20:09:58.972Z,18.50
2022-08-24T20:12:47.655Z,18.75
2022-08-24T20:15:36.681Z,16.63
2022-08-24T20:18:18.865Z,15.07
2022-08-24T20:21:07.685Z,17.10
2022-08-24T20:23:49.951Z,17.70
2022-08-24T20:26:39.673Z,15.55
2022-08-24T20:29:28.659Z,16.02
2022-08-24T20:32:10.963Z,17.13
2022-08-24T20:35:01.680Z,16.35
2022-08-24T20:37:44.062Z,15.65
2022-08-24T20:40:40.663Z,15.30
2022-08-24T20:43:28.936Z,15.90
2022-08-24T20:46:11.755Z,14.35
2022-08-24T20:48:55.847Z,18.48
2022-08-24T20:51:44.652Z,15.77
2022-08-24T20:54:36.612Z,20.27
2022-08-24T20:57:26.252Z,16.02
2022-08-24T21:00:17.680Z,19.35
2022-08-24T21:02:59.847Z,19.73
2022-08-24T21:05:48.676Z,17.00
2022-08-24T21:08:37.652Z,19.13
2022-08-24T21:11:26.687Z,15.15
2022-08-24T21:14:16.659Z,21.70
2022-08-24T21:17:06.665Z,16.33
2022-08-24T21:19:55.650Z,18.00
2022-08-24T21:22:44.660Z,16.75
2022-08-24T21:25:26.913Z,15.18
2022-08-24T21:28:15.666Z,15.32
2022-08-24T21:30:58.998Z,16.30
2022-08-24T21:34:07.674Z,14.45
2022-08-24T21:36:49.923Z,16.15
2022-08-24T21:39:41.657Z,14.43
2022-08-24T21:42:30.646Z,16.75
2022-08-24T21:45:20.669Z,16.02
2022-08-24T21:48:02.970Z,17.30
2022-08-24T21:50:51.679Z,16.90
2022-08-24T21:53:33.963Z,17.00
2022-08-24T21:56:32.643Z,18.05
2022-08-24T21:59:16.000Z,19.70
2022-08-24T22:02:05.005Z,17.08
2022-08-24T22:04:46.833Z,18.45
2022-08-24T22:07:43.642Z,19.00
2022-08-24T22:10:27.103Z,20.58
2022-08-24T22:13:15.664Z,17.80
2022-08-24T22:15:57.950Z,17.73
2022-08-24T22:18:47.659Z,17.05
2022-08-24T22:21:36.270Z,19.15
2022-08-24T22:24:25.669Z,24.15
2022-08-24T22:27:07.912Z,19.75
2022-08-24T22:29:56.635Z,19.08
2022-08-24T22:32:38.967Z,17.30
2022-08-24T22:35:27.632Z,18.83
2022-08-24T22:38:10.970Z,18.55
2022-08-24T22:41:03.647Z,20.73
2022-08-24T22:44:04.290Z,21.33
2022-08-24T22:46:58.654Z,18.63
2022-08-24T22:49:45.885Z,18.13
2022-08-24T22:52:34.648Z,18.70
2022-08-24T22:55:17.843Z,18.25
2022-08-24T22:58:07.642Z,20.60
2022-08-24T23:00:49.930Z,19.25
2022-08-24T23:03:38.726Z,21.33
2022-08-24T23:06:20.841Z,20.85
2022-08-24T23:09:09.683Z,19.77
2022-08-24T23:11:55.756Z,20.05
2022-08-24T23:14:45.648Z,19.05
2022-08-24T23:17:28.873Z,20.80
2022-08-24T23:20:18.641Z,20.42
2022-08-24T23:23:00.950Z,20.15
2022-08-24T23:25:49.642Z,22.25
2022-08-24T23:28:32.517Z,20.52
2022-08-24T23:31:21.741Z,20.20
2022-08-24T23:34:04.999Z,23.20
2022-08-24T23:36:53.653Z,21.38
2022-08-24T23:39:35.954Z,20.10
2022-08-24T23:42:30.776Z,19.13
2022-08-24T23:45:13.091Z,20.50
2022-08-24T23:48:02.750Z,23.30
2022-08-24T23:50:51.686Z,22.35
2022-08-24T23:53:43.118Z,20.08
2022-08-24T23:56:33.943Z,20.92
2022-08-24T23:59:26.634Z,20.35
